Weather at Russell Paradise Airport

Public forecast

Using degrees Fahrenheit for public forecast. Weather courtesy of forecast.io.

Closest aviation weather report (METAR) to Russell Paradise Airport

Closest report is Stinson Municipal Airport, 7.9 nm (14.7 km) NW.

2024/02/24 16:53 (retrieved 31 minutes ago)

KSSF 241653Z VRB06KT 10SM CLR 22/04 A3022 RMK AO2 SLP226 T02220039

Closest aviation forecast (TAF) to Russell Paradise Airport

Closest forecast is Stinson Municipal Airport, 7.9 nm (14.7 km) NW.

2024/02/24 12:28 (retrieved 5 hours ago)

TAF KSSF 241126Z 2412/2512 VRB03KT P6SM FEW250 FM241700 16006KT P6SM SKC